sensor_id;sensor_type;location;lat;lon;timestamp;pressure;altitude;pressure_sealevel;temperature;humidity
47785;BME280;35233;55.686;37.848;2023-05-16T00:01:21;100396.75;;;17.51;45.48
47785;BME280;35233;55.686;37.848;2023-05-16T00:03:47;100410.72;;;17.57;45.21
47785;BME280;35233;55.686;37.848;2023-05-16T00:06:13;100406.41;;;17.53;44.82
47785;BME280;35233;55.686;37.848;2023-05-16T00:08:39;100399.22;;;17.55;44.94
47785;BME280;35233;55.686;37.848;2023-05-16T00:11:05;100402.84;;;17.54;44.79
47785;BME280;35233;55.686;37.848;2023-05-16T00:13:37;100404.75;;;17.51;45.05
47785;BME280;35233;55.686;37.848;2023-05-16T00:16:03;100404.88;;;17.48;45.01
47785;BME280;35233;55.686;37.848;2023-05-16T00:18:28;100392.00;;;17.57;45.22
47785;BME280;35233;55.686;37.848;2023-05-16T00:20:54;100397.13;;;17.62;45.83
47785;BME280;35233;55.686;37.848;2023-05-16T00:23:20;100404.84;;;17.68;45.74
47785;BME280;35233;55.686;37.848;2023-05-16T00:25:46;100399.59;;;17.67;46.23
47785;BME280;35233;55.686;37.848;2023-05-16T00:28:13;100410.06;;;17.71;46.64
47785;BME280;35233;55.686;37.848;2023-05-16T00:30:38;100407.47;;;17.70;46.50
47785;BME280;35233;55.686;37.848;2023-05-16T00:33:04;100406.53;;;17.71;47.08
47785;BME280;35233;55.686;37.848;2023-05-16T00:35:30;100415.25;;;17.74;47.05
47785;BME280;35233;55.686;37.848;2023-05-16T00:37:55;100424.22;;;17.73;46.82
47785;BME280;35233;55.686;37.848;2023-05-16T00:40:21;100406.91;;;17.63;47.13
47785;BME280;35233;55.686;37.848;2023-05-16T00:42:46;100424.19;;;17.75;47.36
47785;BME280;35233;55.686;37.848;2023-05-16T00:45:12;100425.38;;;17.68;47.31
47785;BME280;35233;55.686;37.848;2023-05-16T00:47:37;100425.22;;;17.71;46.96
47785;BME280;35233;55.686;37.848;2023-05-16T00:50:03;100426.84;;;17.75;47.04
47785;BME280;35233;55.686;37.848;2023-05-16T00:52:30;100427.84;;;17.72;47.09
47785;BME280;35233;55.686;37.848;2023-05-16T00:54:58;100426.84;;;17.75;47.16
47785;BME280;35233;55.686;37.848;2023-05-16T00:57:23;100434.06;;;17.73;47.73
47785;BME280;35233;55.686;37.848;2023-05-16T00:59:49;100432.19;;;17.75;47.59
47785;BME280;35233;55.686;37.848;2023-05-16T01:02:15;100425.09;;;17.74;47.30
47785;BME280;35233;55.686;37.848;2023-05-16T01:04:42;100424.22;;;17.73;47.53
47785;BME280;35233;55.686;37.848;2023-05-16T01:07:08;100416.34;;;17.70;47.37
47785;BME280;35233;55.686;37.848;2023-05-16T01:09:34;100422.41;;;17.74;47.25
47785;BME280;35233;55.686;37.848;2023-05-16T01:12:12;100430.44;;;17.74;47.55
47785;BME280;35233;55.686;37.848;2023-05-16T01:17:22;100436.66;;;17.74;47.22
47785;BME280;35233;55.686;37.848;2023-05-16T01:20:15;100426.84;;;17.75;47.75
47785;BME280;35233;55.686;37.848;2023-05-16T01:27:42;100423.28;;;17.74;47.75
47785;BME280;35233;55.686;37.848;2023-05-16T01:30:16;100438.41;;;17.75;47.37
47785;BME280;35233;55.686;37.848;2023-05-16T01:32:42;100430.44;;;17.74;47.61
47785;BME280;35233;55.686;37.848;2023-05-16T01:35:10;100439.31;;;17.74;47.52
47785;BME280;35233;55.686;37.848;2023-05-16T01:37:45;100422.50;;;17.72;47.77
47785;BME280;35233;55.686;37.848;2023-05-16T01:40:29;100429.53;;;17.75;47.74
47785;BME280;35233;55.686;37.848;2023-05-16T01:42:59;100428.47;;;17.79;47.60
47785;BME280;35233;55.686;37.848;2023-05-16T01:45:31;100432.09;;;17.78;47.78
47785;BME280;35233;55.686;37.848;2023-05-16T01:48:07;100437.44;;;17.78;47.41
47785;BME280;35233;55.686;37.848;2023-05-16T01:50:37;100433.75;;;17.80;47.32
47785;BME280;35233;55.686;37.848;2023-05-16T01:53:11;100439.00;;;17.82;47.37
47785;BME280;35233;55.686;37.848;2023-05-16T01:55:50;100419.75;;;17.74;47.17
47785;BME280;35233;55.686;37.848;2023-05-16T01:58:19;100430.94;;;17.83;47.32
47785;BME280;35233;55.686;37.848;2023-05-16T02:00:45;100421.09;;;17.84;47.64
47785;BME280;35233;55.686;37.848;2023-05-16T02:03:11;100424.69;;;17.83;47.04
47785;BME280;35233;55.686;37.848;2023-05-16T02:05:37;100427.19;;;17.87;47.28
47785;BME280;35233;55.686;37.848;2023-05-16T02:08:03;100428.03;;;17.88;47.60
47785;BME280;35233;55.686;37.848;2023-05-16T02:10:28;100428.03;;;17.88;47.40
47785;BME280;35233;55.686;37.848;2023-05-16T02:12:54;100427.03;;;17.91;47.34
47785;BME280;35233;55.686;37.848;2023-05-16T02:15:19;100417.47;;;17.85;47.18
47785;BME280;35233;55.686;37.848;2023-05-16T02:17:45;100426.16;;;17.90;47.48
47785;BME280;35233;55.686;37.848;2023-05-16T02:20:11;100432.19;;;17.95;47.38
47785;BME280;35233;55.686;37.848;2023-05-16T02:22:37;100420.69;;;17.93;47.18
47785;BME280;35233;55.686;37.848;2023-05-16T02:25:12;100432.91;;;17.99;47.28
47785;BME280;35233;55.686;37.848;2023-05-16T02:27:38;100436.44;;;17.99;46.96
47785;BME280;35233;55.686;37.848;2023-05-16T02:30:04;100428.56;;;17.96;46.96
47785;BME280;35233;55.686;37.848;2023-05-16T02:32:31;100436.28;;;18.02;47.03
47785;BME280;35233;55.686;37.848;2023-05-16T02:34:56;100436.13;;;18.05;46.96
47785;BME280;35233;55.686;37.848;2023-05-16T02:37:21;100439.63;;;18.07;46.75
47785;BME280;35233;55.686;37.848;2023-05-16T02:39:47;100432.53;;;18.06;47.20
47785;BME280;35233;55.686;37.848;2023-05-16T02:42:12;100435.94;;;18.10;46.66
47785;BME280;35233;55.686;37.848;2023-05-16T02:44:38;100423.50;;;18.09;46.56
47785;BME280;35233;55.686;37.848;2023-05-16T02:47:03;100426.09;;;18.10;46.97
47785;BME280;35233;55.686;37.848;2023-05-16T02:49:29;100431.38;;;18.12;46.96
47785;BME280;35233;55.686;37.848;2023-05-16T02:51:54;100435.56;;;18.18;46.82
47785;BME280;35233;55.686;37.848;2023-05-16T02:54:20;100425.59;;;18.21;46.37
47785;BME280;35233;55.686;37.848;2023-05-16T02:56:45;100434.41;;;18.23;46.70
47785;BME280;35233;55.686;37.848;2023-05-16T02:59:11;100423.13;;;18.17;46.42
47785;BME280;35233;55.686;37.848;2023-05-16T03:01:37;100433.53;;;18.23;46.59
47785;BME280;35233;55.686;37.848;2023-05-16T03:04:02;100430.97;;;18.21;46.67
47785;BME280;35233;55.686;37.848;2023-05-16T03:06:28;100437.81;;;18.27;46.19
47785;BME280;35233;55.686;37.848;2023-05-16T03:08:54;100435.00;;;18.30;46.33
47785;BME280;35233;55.686;37.848;2023-05-16T03:11:20;100423.50;;;18.28;46.46
47785;BME280;35233;55.686;37.848;2023-05-16T03:13:46;100435.63;;;18.35;46.12
47785;BME280;35233;55.686;37.848;2023-05-16T03:16:12;100435.63;;;18.35;46.51
47785;BME280;35233;55.686;37.848;2023-05-16T03:18:37;100435.56;;;18.37;46.61
47785;BME280;35233;55.686;37.848;2023-05-16T03:21:03;100425.66;;;18.39;46.17
47785;BME280;35233;55.686;37.848;2023-05-16T03:23:28;100441.47;;;18.43;46.17
47785;BME280;35233;55.686;37.848;2023-05-16T03:25:54;100432.59;;;18.43;46.04
47785;BME280;35233;55.686;37.848;2023-05-16T03:28:20;100440.56;;;18.44;46.03
47785;BME280;35233;55.686;37.848;2023-05-16T03:30:45;100446.53;;;18.49;45.65
47785;BME280;35233;55.686;37.848;2023-05-16T03:33:11;100457.97;;;18.53;46.48
47785;BME280;35233;55.686;37.848;2023-05-16T03:35:37;100455.34;;;18.51;45.62
47785;BME280;35233;55.686;37.848;2023-05-16T03:38:02;100463.22;;;18.54;45.61
47785;BME280;35233;55.686;37.848;2023-05-16T03:40:28;100469.38;;;18.57;45.99
47785;BME280;35233;55.686;37.848;2023-05-16T03:42:53;100471.91;;;18.60;45.85
47785;BME280;35233;55.686;37.848;2023-05-16T03:45:19;100474.44;;;18.63;45.55
47785;BME280;35233;55.686;37.848;2023-05-16T03:47:45;100470.75;;;18.65;46.00
47785;BME280;35233;55.686;37.848;2023-05-16T03:50:12;100478.78;;;18.65;45.52
47785;BME280;35233;55.686;37.848;2023-05-16T03:52:56;100481.22;;;18.70;45.82
47785;BME280;35233;55.686;37.848;2023-05-16T03:55:22;100481.16;;;18.71;45.51
47785;BME280;35233;55.686;37.848;2023-05-16T03:57:47;100482.00;;;18.73;45.63
47785;BME280;35233;55.686;37.848;2023-05-16T04:00:31;100475.72;;;18.73;45.62
47785;BME280;35233;55.686;37.848;2023-05-16T04:02:58;100483.56;;;18.77;45.52
47785;BME280;35233;55.686;37.848;2023-05-16T04:05:42;100480.78;;;18.79;45.33
47785;BME280;35233;55.686;37.848;2023-05-16T04:08:07;100486.03;;;18.82;45.49
47785;BME280;35233;55.686;37.848;2023-05-16T04:10:33;100477.91;;;18.84;44.87
47785;BME280;35233;55.686;37.848;2023-05-16T04:12:58;100483.97;;;18.87;45.35
47785;BME280;35233;55.686;37.848;2023-05-16T04:15:24;100473.34;;;18.86;44.97
47785;BME280;35233;55.686;37.848;2023-05-16T04:17:50;100485.47;;;18.93;44.88
47785;BME280;35233;55.686;37.848;2023-05-16T04:20:16;100486.19;;;18.96;45.02
47785;BME280;35233;55.686;37.848;2023-05-16T04:22:41;100476.44;;;18.95;45.05
47785;BME280;35233;55.686;37.848;2023-05-16T04:25:25;100489.44;;;19.03;44.59
47785;BME280;35233;55.686;37.848;2023-05-16T04:30:53;100490.09;;;19.08;45.02
47785;BME280;35233;55.686;37.848;2023-05-16T04:36:22;100484.84;;;18.69;46.21
47785;BME280;35233;55.686;37.848;2023-05-16T04:38:48;100481.38;;;18.67;46.05
47785;BME280;35233;55.686;37.848;2023-05-16T04:41:13;100476.16;;;18.64;45.80
47785;BME280;35233;55.686;37.848;2023-05-16T04:43:39;100477.91;;;18.65;46.02
47785;BME280;35233;55.686;37.848;2023-05-16T04:46:05;100484.13;;;18.65;45.76
47785;BME280;35233;55.686;37.848;2023-05-16T04:48:32;100487.38;;;18.72;45.91
47785;BME280;35233;55.686;37.848;2023-05-16T04:50:58;100482.16;;;18.69;45.90
47785;BME280;35233;55.686;37.848;2023-05-16T04:53:23;100489.19;;;18.71;45.45
47785;BME280;35233;55.686;37.848;2023-05-16T04:56:07;100493.56;;;18.74;45.23
47785;BME280;35233;55.686;37.848;2023-05-16T04:58:33;100492.69;;;18.73;45.49
47785;BME280;35233;55.686;37.848;2023-05-16T05:01:17;100499.53;;;18.79;45.19
47785;BME280;35233;55.686;37.848;2023-05-16T05:03:42;100494.97;;;18.81;45.01
47785;BME280;35233;55.686;37.848;2023-05-16T05:06:08;100502.88;;;18.84;45.05
47785;BME280;35233;55.686;37.848;2023-05-16T05:08:33;100496.59;;;18.85;45.29
47785;BME280;35233;55.686;37.848;2023-05-16T05:10:59;100500.03;;;18.87;45.12
47785;BME280;35233;55.686;37.848;2023-05-16T05:13:24;100502.72;;;18.87;44.96
47785;BME280;35233;55.686;37.848;2023-05-16T05:15:50;100499.88;;;18.90;44.85
47785;BME280;35233;55.686;37.848;2023-05-16T05:18:16;100505.88;;;18.95;44.83
47785;BME280;35233;55.686;37.848;2023-05-16T05:20:42;100502.50;;;18.92;44.82
47785;BME280;35233;55.686;37.848;2023-05-16T05:23:08;100509.41;;;18.96;44.50
47785;BME280;35233;55.686;37.848;2023-05-16T05:25:35;100510.22;;;18.98;44.79
47785;BME280;35233;55.686;37.848;2023-05-16T05:28:01;100519.06;;;19.00;44.30
47785;BME280;35233;55.686;37.848;2023-05-16T05:30:26;100505.50;;;19.03;44.52
47785;BME280;35233;55.686;37.848;2023-05-16T05:32:53;100513.47;;;19.05;44.54
47785;BME280;35233;55.686;37.848;2023-05-16T05:35:19;100509.28;;;18.99;44.77
47785;BME280;35233;55.686;37.848;2023-05-16T05:37:45;100521.34;;;19.08;44.50
47785;BME280;35233;55.686;37.848;2023-05-16T05:40:11;100515.91;;;19.09;44.70
47785;BME280;35233;55.686;37.848;2023-05-16T05:42:37;100518.50;;;19.11;44.60
47785;BME280;35233;55.686;37.848;2023-05-16T05:45:03;100522.84;;;19.13;44.59
47785;BME280;35233;55.686;37.848;2023-05-16T05:47:29;100515.91;;;19.09;44.23
47785;BME280;35233;55.686;37.848;2023-05-16T05:49:55;100526.16;;;19.18;44.18
47785;BME280;35233;55.686;37.848;2023-05-16T05:52:20;100519.94;;;19.18;44.47
47785;BME280;35233;55.686;37.848;2023-05-16T05:54:46;100523.44;;;19.20;44.46
47785;BME280;35233;55.686;37.848;2023-05-16T05:57:12;100512.88;;;19.17;44.68
47785;BME280;35233;55.686;37.848;2023-05-16T05:59:38;100519.00;;;19.19;44.27
47785;BME280;35233;55.686;37.848;2023-05-16T06:02:03;100534.84;;;19.23;44.26
47785;BME280;35233;55.686;37.848;2023-05-16T06:04:29;100526.00;;;19.21;44.30
47785;BME280;35233;55.686;37.848;2023-05-16T06:06:55;100528.47;;;19.26;44.14
47785;BME280;35233;55.686;37.848;2023-05-16T06:09:20;100538.19;;;19.29;43.99
47785;BME280;35233;55.686;37.848;2023-05-16T06:11:46;100532.72;;;19.30;44.23
47785;BME280;35233;55.686;37.848;2023-05-16T06:14:13;100535.25;;;19.33;44.00
47785;BME280;35233;55.686;37.848;2023-05-16T06:16:40;100538.72;;;19.35;43.89
47785;BME280;35233;55.686;37.848;2023-05-16T06:19:06;100533.53;;;19.32;44.23
47785;BME280;35233;55.686;37.848;2023-05-16T06:21:32;100542.25;;;19.36;43.99
47785;BME280;35233;55.686;37.848;2023-05-16T06:23:58;100538.72;;;19.35;44.07
47785;BME280;35233;55.686;37.848;2023-05-16T06:26:24;100541.94;;;19.42;43.96
47785;BME280;35233;55.686;37.848;2023-05-16T06:28:49;100528.88;;;19.36;43.65
47785;BME280;35233;55.686;37.848;2023-05-16T06:31:15;100536.75;;;19.39;43.73
47785;BME280;35233;55.686;37.848;2023-05-16T06:33:40;100542.75;;;19.44;43.76
47785;BME280;35233;55.686;37.848;2023-05-16T06:36:06;100544.41;;;19.47;44.12
47785;BME280;35233;55.686;37.848;2023-05-16T06:38:32;100540.78;;;19.48;43.96
47785;BME280;35233;55.686;37.848;2023-05-16T06:40:57;100541.56;;;19.50;44.05
47785;BME280;35233;55.686;37.848;2023-05-16T06:43:23;100538.19;;;19.46;43.72
47785;BME280;35233;55.686;37.848;2023-05-16T06:45:49;100545.91;;;19.52;43.62
47785;BME280;35233;55.686;37.848;2023-05-16T06:48:16;100540.47;;;19.54;43.67
47785;BME280;35233;55.686;37.848;2023-05-16T06:50:42;100535.88;;;19.56;43.81
47785;BME280;35233;55.686;37.848;2023-05-16T06:53:11;100533.13;;;19.57;43.73
47785;BME280;35233;55.686;37.848;2023-05-16T06:55:36;100535.72;;;19.59;43.87
47785;BME280;35233;55.686;37.848;2023-05-16T06:58:02;100526.91;;;19.57;43.70
47785;BME280;35233;55.686;37.848;2023-05-16T07:00:27;100536.59;;;19.59;43.82
47785;BME280;35233;55.686;37.848;2023-05-16T07:02:53;100540.81;;;19.65;43.71
47785;BME280;35233;55.686;37.848;2023-05-16T07:05:18;100534.63;;;19.63;43.86
47785;BME280;35233;55.686;37.848;2023-05-16T07:07:44;100536.38;;;19.64;43.76
47785;BME280;35233;55.686;37.848;2023-05-16T07:10:10;100532.59;;;19.68;43.56
47785;BME280;35233;55.686;37.848;2023-05-16T07:12:35;100531.66;;;19.69;43.63
47785;BME280;35233;55.686;37.848;2023-05-16T07:15:04;100517.31;;;19.70;43.82
47785;BME280;35233;55.686;37.848;2023-05-16T07:17:30;100538.66;;;19.72;43.86
47785;BME280;35233;55.686;37.848;2023-05-16T07:19:56;100511.31;;;19.65;43.68
47785;BME280;35233;55.686;37.848;2023-05-16T07:22:21;100509.44;;;19.67;43.65
47785;BME280;35233;55.686;37.848;2023-05-16T07:24:47;100511.00;;;19.71;43.73
47785;BME280;35233;55.686;37.848;2023-05-16T07:27:12;100517.00;;;19.76;43.77
47785;BME280;35233;55.686;37.848;2023-05-16T07:29:38;100522.34;;;19.76;43.58
47785;BME280;35233;55.686;37.848;2023-05-16T07:32:04;100524.06;;;19.77;43.65
47785;BME280;35233;55.686;37.848;2023-05-16T07:34:29;100526.59;;;19.80;43.76
47785;BME280;35233;55.686;37.848;2023-05-16T07:36:55;100524.72;;;19.82;44.03
47785;BME280;35233;55.686;37.848;2023-05-16T07:39:21;100517.53;;;19.83;43.90
47785;BME280;35233;55.686;37.848;2023-05-16T07:41:46;100517.53;;;19.83;43.58
47785;BME280;35233;55.686;37.848;2023-05-16T07:44:12;100523.75;;;19.83;43.75
47785;BME280;35233;55.686;37.848;2023-05-16T07:46:37;100524.53;;;19.85;44.08
47785;BME280;35233;55.686;37.848;2023-05-16T07:49:03;100515.53;;;19.86;43.63
47785;BME280;35233;55.686;37.848;2023-05-16T07:51:28;100512.84;;;19.86;44.04
47785;BME280;35233;55.686;37.848;2023-05-16T07:53:54;100510.09;;;19.88;43.96
47785;BME280;35233;55.686;37.848;2023-05-16T07:56:19;100503.88;;;19.87;43.83
47785;BME280;35233;55.686;37.848;2023-05-16T07:58:47;100511.84;;;19.89;43.86
47785;BME280;35233;55.686;37.848;2023-05-16T08:01:13;100515.25;;;19.93;44.08
47785;BME280;35233;55.686;37.848;2023-05-16T08:03:38;100514.28;;;19.94;44.02
47785;BME280;35233;55.686;37.848;2023-05-16T08:06:04;100507.25;;;19.91;43.72
47785;BME280;35233;55.686;37.848;2023-05-16T08:08:29;100510.66;;;19.95;43.66
47785;BME280;35233;55.686;37.848;2023-05-16T08:10:55;100514.13;;;19.97;43.80
47785;BME280;35233;55.686;37.848;2023-05-16T08:13:21;100498.25;;;19.92;43.70
47785;BME280;35233;55.686;37.848;2023-05-16T08:15:46;100514.03;;;19.98;43.91
47785;BME280;35233;55.686;37.848;2023-05-16T08:18:13;100510.47;;;19.98;44.01
47785;BME280;35233;55.686;37.848;2023-05-16T08:20:39;100517.50;;;20.00;44.01
47785;BME280;35233;55.686;37.848;2023-05-16T08:23:06;100508.75;;;19.97;43.84
47785;BME280;35233;55.686;37.848;2023-05-16T08:25:32;100514.03;;;19.98;43.86
47785;BME280;35233;55.686;37.848;2023-05-16T08:27:57;100496.47;;;19.93;43.78
47785;BME280;35233;55.686;37.848;2023-05-16T08:30:23;100506.44;;;20.06;44.21
47785;BME280;35233;55.686;37.848;2023-05-16T08:32:48;100503.91;;;20.03;44.04
47785;BME280;35233;55.686;37.848;2023-05-16T08:35:14;100499.34;;;20.05;44.03
47785;BME280;35233;55.686;37.848;2023-05-16T08:37:39;100498.38;;;20.06;44.16
47785;BME280;35233;55.686;37.848;2023-05-16T08:40:06;100502.81;;;20.07;44.09
47785;BME280;35233;55.686;37.848;2023-05-16T08:42:33;100492.09;;;20.07;44.14
47785;BME280;35233;55.686;37.848;2023-05-16T08:44:58;100495.47;;;20.11;43.93
47785;BME280;35233;55.686;37.848;2023-05-16T08:47:25;100496.31;;;20.11;43.99
47785;BME280;35233;55.686;37.848;2023-05-16T08:49:55;100490.09;;;20.11;43.99
47785;BME280;35233;55.686;37.848;2023-05-16T08:52:25;100493.56;;;20.13;43.96
47785;BME280;35233;55.686;37.848;2023-05-16T08:54:58;100482.97;;;20.10;44.04
47785;BME280;35233;55.686;37.848;2023-05-16T08:57:26;100488.09;;;20.15;43.88
47785;BME280;35233;55.686;37.848;2023-05-16T08:59:52;100476.53;;;20.14;43.93
47785;BME280;35233;55.686;37.848;2023-05-16T09:02:20;100483.72;;;20.13;44.04
47785;BME280;35233;55.686;37.848;2023-05-16T09:04:47;100480.75;;;20.18;44.21
47785;BME280;35233;55.686;37.848;2023-05-16T09:07:13;100478.88;;;20.20;43.98
47785;BME280;35233;55.686;37.848;2023-05-16T09:09:40;100477.16;;;20.19;43.88
47785;BME280;35233;55.686;37.848;2023-05-16T09:12:06;100482.25;;;20.24;44.07
47785;BME280;35233;55.686;37.848;2023-05-16T09:14:32;100481.38;;;20.23;43.85
47785;BME280;35233;55.686;37.848;2023-05-16T09:17:05;100467.97;;;20.23;44.29
47785;BME280;35233;55.686;37.848;2023-05-16T09:19:38;100466.25;;;20.22;44.00
47785;BME280;35233;55.686;37.848;2023-05-16T09:22:06;100478.53;;;20.26;43.98
47785;BME280;35233;55.686;37.848;2023-05-16T09:24:32;100461.47;;;20.27;43.88
47785;BME280;35233;55.686;37.848;2023-05-16T09:27:06;100475.78;;;20.28;44.06
47785;BME280;35233;55.686;37.848;2023-05-16T09:29:33;100466.75;;;20.29;43.74
47785;BME280;35233;55.686;37.848;2023-05-16T09:32:17;100474.75;;;20.30;43.89
47785;BME280;35233;55.686;37.848;2023-05-16T09:34:44;100474.63;;;20.32;44.08
47785;BME280;35233;55.686;37.848;2023-05-16T09:37:10;100466.50;;;20.33;43.83
47785;BME280;35233;55.686;37.848;2023-05-16T09:39:39;100460.19;;;20.34;43.75
47785;BME280;35233;55.686;37.848;2023-05-16T09:42:10;100463.66;;;20.37;43.98
47785;BME280;35233;55.686;37.848;2023-05-16T09:44:36;100456.72;;;20.32;43.96
47785;BME280;35233;55.686;37.848;2023-05-16T09:47:02;100453.78;;;20.37;43.98
47785;BME280;35233;55.686;37.848;2023-05-16T09:49:28;100459.84;;;20.41;44.11
47785;BME280;35233;55.686;37.848;2023-05-16T09:51:54;100451.78;;;20.41;44.08
47785;BME280;35233;55.686;37.848;2023-05-16T09:54:30;100445.44;;;20.42;43.52
47785;BME280;35233;55.686;37.848;2023-05-16T09:56:56;100441.91;;;20.41;43.60
47785;BME280;35233;55.686;37.848;2023-05-16T09:59:40;100456.00;;;20.45;44.02
47785;BME280;35233;55.686;37.848;2023-05-16T10:02:06;100454.13;;;20.47;43.77
47785;BME280;35233;55.686;37.848;2023-05-16T10:04:35;100447.81;;;20.48;44.08
47785;BME280;35233;55.686;37.848;2023-05-16T10:07:19;100439.78;;;20.48;43.83
47785;BME280;35233;55.686;37.848;2023-05-16T10:09:46;100436.97;;;20.49;43.84
47785;BME280;35233;55.686;37.848;2023-05-16T10:12:12;100431.63;;;20.49;43.98
47785;BME280;35233;55.686;37.848;2023-05-16T10:14:40;100435.94;;;20.52;44.06
47785;BME280;35233;55.686;37.848;2023-05-16T10:17:07;100428.72;;;20.54;44.00
47785;BME280;35233;55.686;37.848;2023-05-16T10:19:38;100432.25;;;20.54;43.55
47785;BME280;35233;55.686;37.848;2023-05-16T10:22:05;100425.06;;;20.55;43.81
47785;BME280;35233;55.686;37.848;2023-05-16T10:24:49;100416.84;;;20.58;43.87
47785;BME280;35233;55.686;37.848;2023-05-16T10:27:16;100440.03;;;20.59;44.08
47785;BME280;35233;55.686;37.848;2023-05-16T10:29:42;100421.34;;;20.57;43.86
47785;BME280;35233;55.686;37.848;2023-05-16T10:32:09;100410.59;;;20.57;43.78
47785;BME280;35233;55.686;37.848;2023-05-16T10:34:35;100424.72;;;20.61;43.82
47785;BME280;35233;55.686;37.848;2023-05-16T10:37:01;100413.97;;;20.61;44.26
47785;BME280;35233;55.686;37.848;2023-05-16T10:39:27;100401.69;;;20.57;43.87
47785;BME280;35233;55.686;37.848;2023-05-16T10:41:54;100406.88;;;20.60;43.73
47785;BME280;35233;55.686;37.848;2023-05-16T10:44:20;100409.47;;;20.62;43.92
47785;BME280;35233;55.686;37.848;2023-05-16T10:49:49;100399.56;;;20.62;43.92
47785;BME280;35233;55.686;37.848;2023-05-16T10:52:14;100415.38;;;20.68;44.18
47785;BME280;35233;55.686;37.848;2023-05-16T10:54:48;100402.88;;;20.67;44.08
47785;BME280;35233;55.686;37.848;2023-05-16T10:57:18;100402.69;;;20.70;44.09
47785;BME280;35233;55.686;37.848;2023-05-16T10:59:48;100394.63;;;20.70;44.23
47785;BME280;35233;55.686;37.848;2023-05-16T11:02:40;100403.47;;;20.72;44.16
47785;BME280;35233;55.686;37.848;2023-05-16T11:05:07;100393.53;;;20.74;43.95
47785;BME280;35233;55.686;37.848;2023-05-16T11:07:37;100391.78;;;20.73;44.01
47785;BME280;35233;55.686;37.848;2023-05-16T11:10:06;100391.69;;;20.75;43.95
47785;BME280;35233;55.686;37.848;2023-05-16T11:12:51;100387.09;;;20.77;44.26
47785;BME280;35233;55.686;37.848;2023-05-16T11:15:26;100395.16;;;20.77;44.10
47785;BME280;35233;55.686;37.848;2023-05-16T11:18:14;100399.47;;;20.79;44.25
47785;BME280;35233;55.686;37.848;2023-05-16T11:20:40;100392.38;;;20.78;44.36
47785;BME280;35233;55.686;37.848;2023-05-16T11:23:26;100383.28;;;20.81;44.28
47785;BME280;35233;55.686;37.848;2023-05-16T11:25:56;100384.13;;;20.82;43.94
47785;BME280;35233;55.686;37.848;2023-05-16T11:28:26;100377.78;;;20.83;44.09
47785;BME280;35233;55.686;37.848;2023-05-16T11:30:54;100379.63;;;20.82;43.91
47785;BME280;35233;55.686;37.848;2023-05-16T11:33:23;100378.75;;;20.82;44.01
47785;BME280;35233;55.686;37.848;2023-05-16T11:36:02;100391.31;;;20.81;44.43
47785;BME280;35233;55.686;37.848;2023-05-16T11:38:31;100382.22;;;20.84;44.21
47785;BME280;35233;55.686;37.848;2023-05-16T11:41:04;100388.38;;;20.86;43.97
47785;BME280;35233;55.686;37.848;2023-05-16T11:43:41;100377.63;;;20.86;43.86
47785;BME280;35233;55.686;37.848;2023-05-16T11:46:25;100375.81;;;20.86;44.27
47785;BME280;35233;55.686;37.848;2023-05-16T11:48:52;100364.28;;;20.84;44.42
47785;BME280;35233;55.686;37.848;2023-05-16T11:51:18;100360.56;;;20.87;44.44
47785;BME280;35233;55.686;37.848;2023-05-16T11:53:45;100374.84;;;20.87;44.12
47785;BME280;35233;55.686;37.848;2023-05-16T11:56:11;100371.13;;;20.90;44.43
47785;BME280;35233;55.686;37.848;2023-05-16T11:58:37;100355.97;;;20.89;44.17
47785;BME280;35233;55.686;37.848;2023-05-16T12:01:03;100348.59;;;20.92;44.40
47785;BME280;35233;55.686;37.848;2023-05-16T12:03:33;100352.13;;;20.93;44.03
47785;BME280;35233;55.686;37.848;2023-05-16T12:06:00;100354.91;;;20.91;44.27
47785;BME280;35233;55.686;37.848;2023-05-16T12:08:26;100360.13;;;20.94;44.02
47785;BME280;35233;55.686;37.848;2023-05-16T12:10:52;100365.50;;;20.94;43.92
47785;BME280;35233;55.686;37.848;2023-05-16T12:13:19;100360.97;;;20.95;44.22
47785;BME280;35233;55.686;37.848;2023-05-16T12:15:46;100369.78;;;20.97;44.32
47785;BME280;35233;55.686;37.848;2023-05-16T12:18:12;100364.59;;;20.94;44.08
47785;BME280;35233;55.686;37.848;2023-05-16T12:20:38;100350.22;;;20.95;43.97
47785;BME280;35233;55.686;37.848;2023-05-16T12:23:04;100355.50;;;20.96;44.01
47785;BME280;35233;55.686;37.848;2023-05-16T12:25:34;100357.81;;;21.02;44.05
47785;BME280;35233;55.686;37.848;2023-05-16T12:28:06;100358.84;;;21.00;44.20
47785;BME280;35233;55.686;37.848;2023-05-16T12:30:32;100360.00;;;20.96;44.03
47785;BME280;35233;55.686;37.848;2023-05-16T12:33:12;100353.13;;;21.06;44.40
47785;BME280;35233;55.686;37.848;2023-05-16T12:35:45;100344.38;;;21.02;44.33
47785;BME280;35233;55.686;37.848;2023-05-16T12:38:13;100348.69;;;21.05;44.01
47785;BME280;35233;55.686;37.848;2023-05-16T12:40:40;100341.22;;;21.10;44.07
47785;BME280;35233;55.686;37.848;2023-05-16T12:43:32;100352.28;;;21.20;43.95
47785;BME280;35233;55.686;37.848;2023-05-16T12:45:58;100352.97;;;21.23;44.17
47785;BME280;35233;55.686;37.848;2023-05-16T12:48:30;100343.75;;;21.28;43.75
47785;BME280;35233;55.686;37.848;2023-05-16T12:50:56;100345.09;;;21.35;43.76
47785;BME280;35233;55.686;37.848;2023-05-16T12:53:22;100334.72;;;21.29;44.19
47785;BME280;35233;55.686;37.848;2023-05-16T12:55:47;100325.34;;;21.36;43.88
47785;BME280;35233;55.686;37.848;2023-05-16T12:58:13;100337.75;;;21.53;43.03
47785;BME280;35233;55.686;37.848;2023-05-16T13:00:38;100342.44;;;21.63;43.36